Racecast

San Luis Obispo County Championship

Laguna lake Park · 5000m · Boys · Varsity · 2015-10-29 · CA

Course difficulty: +0.026

Race-day weather: 65°F · wind 30 mph · humidity 65%

View full meet →

Team scores

Place Team Points 12345 67
1 Paso Robles (CA) 38 3 4 5 12 14 20 27
2 Arroyo Grande (CA) 57 2 6 15 16 18 19 28
3 San Luis Obispo (CA) 75 1 7 11 24 32 33 36
4 Nipomo (CA) 79 8 10 13 17 31 42 44
5 Atascadero (CA) 117 21 22 23 25 26 30 35
6 Morro Bay (CA) 193 9 41 45 47 51 52 54
7 Templeton (CA) 197 37 38 39 40 43 48 56
8 Mission College Prep Catholic (CA) 233 29 46 50 53 55 57 58
9 Coast Union (CA) 263 34 49 59 60 61 62 63

As scored by the meet.

Results

Place Athlete Grade School Time Rating Points
1 Callum Bolger 11 San Luis Obispo (CA) 1 15:27 136.8 1
2 Christian Ricketts 11 Arroyo Grande (CA) 1 16:04 131.5 2
3 Luis Armendariz 11 Paso Robles (CA) 1 16:06 131.3 3
4 Gannon Chamberlain 12 Paso Robles (CA) 2 16:21 129.3 4
5 Joshua Potter 12 Paso Robles (CA) 3 16:28 128.3 5
6 James Sever 12 Coastal Christian (NC) 1 16:39 126.9
7 Luis Jazo 10 Arroyo Grande (CA) 2 16:49 125.7 6
8 Matt White 11 San Luis Obispo (CA) 2 16:53 125.2 7
9 Garrett Morgan 11 Nipomo (CA) 1 16:57 PR 124.7 8
10 Andrew Stafford 12 Morro Bay (CA) 1 16:59 SR 124.4 9
11 Rogelio Flores 12 Nipomo (CA) 2 17:02 124.1 10
12 Kobi Kelly 12 San Luis Obispo (CA) 3 17:10 123.1 11
13 Taylor Bedrosian 12 Paso Robles (CA) 4 17:17 122.3 12
14 Joseph Gocke 10 Nipomo (CA) 3 17:20 PR 121.9 13
15 Pablo Cortes 9 Paso Robles (CA) 5 17:23 121.6 14
16 Jacob Emeterio 12 Arroyo Grande (CA) 3 17:30 120.8 15
17 Tavis Cote 11 Arroyo Grande (CA) 4 17:32 120.5 16
18 Josue Navarro 11 Nipomo (CA) 4 17:33 PR 120.4 17
19 Spencer Eley 10 Arroyo Grande (CA) 5 17:34 120.3 18
20 Brigham Dalebout 11 Arroyo Grande (CA) 6 17:35 120.2 19
21 Damian Navarro 11 Paso Robles (CA) 6 17:36 PR 120.1 20
22 Joseph Boche 11 Atascadero (CA) 1 17:39 119.7 21
23 Tegan Fleishman 11 Atascadero (CA) 2 17:42 119.4 22
24 Austin Erb 10 Atascadero (CA) 3 17:45 119.1 23
25 Garron Knox 11 San Luis Obispo (CA) 4 17:46 119.0 24
26 Felipe Dejesus 12 Atascadero (CA) 4 17:52 118.3 25
27 Xavier Gonzales 9 Atascadero (CA) 5 17:52 118.3 26
28 Hector Jimenez 11 Paso Robles (CA) 7 17:54 PR 118.1 27
29 Nick Soares 11 Arroyo Grande (CA) 7 18:06 PR 116.8 28
30 Nick Fiorentino 10 Arroyo Grande (CA) 8 18:07 116.7
31 Scott Scharlach 10 Mission College Prep Catholic (CA) 1 18:07 116.7 29
32 Alec Kleinman 11 Paso Robles (CA) 8 18:07 PR 116.7
33 Kyle Meeder 11 Paso Robles (CA) 9 18:10 116.3
34 Max Bontenbal 9 Atascadero (CA) 6 18:11 116.2 30
35 Michael Pineda 12 Paso Robles (CA) 10 18:13 PR 116.0
36 Raul Angeles 12 Nipomo (CA) 5 18:14 PR 115.9 31
37 Jacob Andreatta 10 San Luis Obispo (CA) 5 18:19 115.4 32
38 Cole Bumen 10 San Luis Obispo (CA) 6 18:19 PR 115.4 33
39 Carter Campbell 10 Arroyo Grande (CA) 9 18:21 PR 115.2
40 Colin Hayashi 12 Arroyo Grande (CA) 10 18:22 SR 115.1
41 Paul Butterfield 9 Coast Union (CA) 1 18:23 115.0 34
42 Franko Jira 10 Atascadero (CA) 7 18:24 SR 114.9 35
43 Elijah Victa 12 Atascadero (CA) 8 18:26 PR 114.7
44 Aaron Bloom 9 San Luis Obispo (CA) 7 18:26 114.7 36
45 Damon Toste 12 Atascadero (CA) 9 18:31 114.1
46 Noah Crabtree 11 Templeton (CA) 1 18:32 114.0 37
47 Charlie Raine 9 Templeton (CA) 2 18:45 PR 112.7 38
48 Matthew Olsen 11 Paso Robles (CA) 11 18:45 SR 112.7
49 Vincent Corella 9 Templeton (CA) 3 18:46 112.6 39
50 Ian Young 10 Paso Robles (CA) 12 18:46 PR 112.6
51 Brennan Tobin 11 Templeton (CA) 4 18:48 112.4 40
52 Dylan Williams 10 Morro Bay (CA) 2 18:49 PR 112.3 41
53 Drake Cote 9 Arroyo Grande (CA) 11 18:53 PR 111.9
54 Devin Diaz 9 Nipomo (CA) 6 18:54 111.8 42
55 Brenden Niller 9 Templeton (CA) 5 18:57 111.5 43
56 Steven Scruggs 9 Paso Robles (CA) 13 18:58 PR 111.4
57 Vicente Reyes 10 Arroyo Grande (CA) 12 19:04 PR 110.8
58 Matt Navarro 11 San Luis Obispo (CA) 8 19:07 PR 110.6
59 Tony Lastra 12 Atascadero (CA) 10 19:08 PR 110.5
60 Antonio DaSilva 9 San Luis Obispo (CA) 9 19:10 PR 110.3
61 Colin Speirs 10 San Luis Obispo (CA) 10 19:14 PR 109.9
62 David Romero 10 San Luis Obispo (CA) 11 19:15 PR 109.8
63 Jesus Hinojosa Perez 9 Nipomo (CA) 7 19:16 PR 109.7 44
64 Oscar Jimenez 11 Paso Robles (CA) 14 19:18 SR 109.5
65 Cooper Limon 9 Arroyo Grande (CA) 13 19:22 109.1
66 Jacob Nichols 9 Arroyo Grande (CA) 14 19:23 PR 109.0
67 Stephen ZagRodny 10 San Luis Obispo (CA) 12 19:26 PR 108.8
68 Tyler Forster 10 Morro Bay (CA) 3 19:26 PR 108.8 45
69 Jacob Schenberg 10 Arroyo Grande (CA) 15 19:26 PR 108.8
70 Bereket Kearns 9 Mission College Prep Catholic (CA) 2 19:27 108.7 46
71 Luis Zamudio 12 Nipomo (CA) 8 19:30 PR 108.4
72 Michael Murach 12 Atascadero (CA) 11 19:32 PR 108.2
73 Andrew Esperanza- Luna 11 Paso Robles (CA) 15 19:35 PR 107.9
74 Cooper Lyle 10 San Luis Obispo (CA) 13 19:35 PR 107.9
75 Nathan Moran 10 Morro Bay (CA) 4 19:37 107.7 47
76 John East 9 Paso Robles (CA) 16 19:38 PR 107.7
77 Isaac Jamison 9 Templeton (CA) 6 19:39 PR 107.6 48
78 Christopher Fleischer 9 Arroyo Grande (CA) 16 19:40 PR 107.5
79 Dante Garcia 10 Coast Union (CA) 2 19:41 PR 107.4 49
80 Tobin Shea 12 Mission College Prep Catholic (CA) 3 19:48 SR 106.7 50
81 Logan Wilt 11 Atascadero (CA) 12 19:48 106.7
82 Arturo Toral 11 Atascadero (CA) 13 19:50 PR 106.6
83 Matt Stephens 9 San Luis Obispo (CA) 14 19:52 PR 106.4
84 Braden Kleinman 11 Paso Robles (CA) 17 19:57 PR 105.9
85 Collin Torres 11 Atascadero (CA) 14 20:00 PR 105.7
86 Jacob Sabatino 10 Arroyo Grande (CA) 17 20:04 105.3
87 Frank Holder 10 Morro Bay (CA) 5 20:08 PR 105.0 51
88 Santiago Becerra 11 Nipomo (CA) 9 20:10 PR 104.8
89 Issac Thomas 10 Morro Bay (CA) 6 20:12 104.6 52
90 John Polvi 10 San Luis Obispo (CA) 15 20:16 PR 104.3
91 Kade Berti 9 Paso Robles (CA) 18 20:18 PR 104.1
92 Benjamin Ernstrom 9 San Luis Obispo (CA) 16 20:22 PR 103.8
93 Emmanuel Angeles 10 Paso Robles (CA) 19 20:24 PR 103.6
94 Justice Fair 9 Arroyo Grande (CA) 18 20:26 PR 103.4
95 Joshua Steinbeck 12 Paso Robles (CA) 20 20:30 PR 103.1
96 Marcos Morales 9 San Luis Obispo (CA) 17 20:31 PR 103.0
97 Caleb Scott 9 Arroyo Grande (CA) 19 20:35 PR 102.7
98 Gavin Smolik 11 Paso Robles (CA) 21 20:38 PR 102.4
99 Joe Spillane 12 Mission College Prep Catholic (CA) 4 20:41 PR 102.2 53
100 Luke Valdes 11 Arroyo Grande (CA) 20 20:50 PR 101.5
101 Christopher Bennett 10 Paso Robles (CA) 22 21:02 PR 100.5
102 Alec West 9 San Luis Obispo (CA) 18 21:04 PR 100.3
103 Jake Silva 11 Arroyo Grande (CA) 21 21:04 PR 100.3
104 Noah Huerta 11 San Luis Obispo (CA) 19 21:05 PR 100.2
105 Jordan Singh 10 Arroyo Grande (CA) 22 21:06 SR 100.2
106 Manuel Saenz 11 Nipomo (CA) 10 21:06 PR 100.2
107 Matthew Rauenzahn 10 Morro Bay (CA) 7 21:11 PR 99.8 54
108 Sam Babb 9 Paso Robles (CA) 23 21:14 PR 99.5
109 Gabriel Duarte 9 Arroyo Grande (CA) 23 21:16 PR 99.4
110 Evan McLenithan 12 Atascadero (CA) 15 21:18 PR 99.2
111 Elliot Riforgiate 10 Mission College Prep Catholic (CA) 5 21:26 98.6 55
112 Easton Anguay 11 Paso Robles (CA) 24 21:34 PR 98.0
113 Trevor Bales 9 Arroyo Grande (CA) 24 21:41 PR 97.5
114 Robert Castillo 11 Atascadero (CA) 16 21:41 PR 97.5
115 David Say 12 Atascadero (CA) 17 21:42 PR 97.4
116 Micah Vinet 10 Arroyo Grande (CA) 25 21:49 PR 96.9
117 Josh Lambert 12 Atascadero (CA) 18 21:54 PR 96.5
118 Johnathan Horton 10 Paso Robles (CA) 25 21:57 PR 96.3
119 Eric Briltz 9 Templeton (CA) 7 21:57 96.3 56
120 Jacob Scurria 11 Mission College Prep Catholic (CA) 6 21:57 96.3 57
121 Angel Acosta 9 Atascadero (CA) 19 22:04 PR 95.8
122 Matthew Prestoza 11 Mission College Prep Catholic (CA) 7 22:10 PR 95.3 58
123 Daniel Cox 11 Paso Robles (CA) 26 22:15 PR 95.0
124 Andrew Murach 9 Atascadero (CA) 20 22:18 PR 94.8
125 Nathan Mueller 10 Atascadero (CA) 21 22:27 PR 94.1
126 Andres Bernal 10 Nipomo (CA) 11 22:32 PR 93.8
127 Chance Keegan 11 Mission College Prep Catholic (CA) 8 22:45 PR 92.9
128 JT Krossa 10 Mission College Prep Catholic (CA) 9 22:46 PR 92.8
129 Tanner Schaffer 9 Templeton (CA) 8 22:50 PR 92.6
130 Ryan Gustafson 9 Paso Robles (CA) 27 22:58 PR 92.0
131 Daniel Nave 11 Mission College Prep Catholic (CA) 10 23:00 PR 91.9
132 Daniel Snelling 11 San Luis Obispo (CA) 20 23:19 PR 90.6
133 Hank Gibbs 9 Mission College Prep Catholic (CA) 11 23:35 89.6
134 Cody Tallant 11 Arroyo Grande (CA) 26 23:42 PR 89.2
135 Derek Gong 9 Atascadero (CA) 22 23:47 PR 88.9
136 Davis Paul 10 Mission College Prep Catholic (CA) 12 23:50 PR 88.7
137 Brian Kragh 10 Paso Robles (CA) 28 23:52 PR 88.5
138 Nate Roper 11 Coast Union (CA) 3 23:53 PR 88.5 59
139 Christian Fay 10 Paso Robles (CA) 29 23:55 PR 88.4
140 Shae Manske 9 Templeton (CA) 9 24:23 PR 86.7
141 Will Stephson 9 Coast Union (CA) 4 24:29 PR 86.3 60
142 Samuel Collins 11 Paso Robles (CA) 30 24:44 PR 85.5
143 Josh Aronsohn 11 Paso Robles (CA) 31 25:03 PR 84.4
144 David May 9 Coast Union (CA) 5 25:13 PR 83.8 61
145 Jacob Elsey 9 San Luis Obispo (CA) 21 25:15 PR 83.7
146 Tyler Seng 10 Coast Union (CA) 6 25:51 PR 81.8 62
147 Garrett Ravatt 9 Atascadero (CA) 23 26:31 PR 79.7
148 Keaton Adams 9 Mission College Prep Catholic (CA) 13 26:45 PR 79.0
149 Shaun Wiechmann 10 Mission College Prep Catholic (CA) 14 27:14 PR 77.6
150 Chace Cooper 9 Nipomo (CA) 12 27:27 PR 77.0
151 Robby Lammert 9 Mission College Prep Catholic (CA) 15 28:43 PR 73.6
152 Leo Perez 10 Paso Robles (CA) 32 29:19 PR 72.1
153 Cesar Hernanadez 9 Coast Union (CA) 7 31:03 PR 68.1 63
Something wrong on this page? Report it →